createdAt,value
2023-04-15T00:01:49.995Z,11.52
2023-04-15T00:04:16.586Z,11.47
2023-04-15T00:06:43.079Z,11.39
2023-04-15T00:09:09.552Z,11.35
2023-04-15T00:11:35.991Z,11.34
2023-04-15T00:14:02.395Z,11.30
2023-04-15T00:16:28.945Z,11.33
2023-04-15T00:18:55.501Z,11.33
2023-04-15T00:21:22.082Z,11.34
2023-04-15T00:23:52.486Z,11.38
2023-04-15T00:26:19.625Z,11.38
2023-04-15T00:28:47.241Z,11.39
2023-04-15T00:31:14.195Z,11.31
2023-04-15T00:33:40.686Z,11.31
2023-04-15T00:36:07.311Z,11.37
2023-04-15T00:38:33.780Z,11.34
2023-04-15T00:41:00.262Z,11.32
2023-04-15T00:43:27.672Z,11.29
2023-04-15T00:45:55.876Z,11.33
2023-04-15T00:48:22.995Z,11.23
2023-04-15T00:50:49.457Z,11.14
2023-04-15T00:53:15.902Z,11.17
2023-04-15T00:55:42.531Z,11.14
2023-04-15T00:58:08.933Z,11.16
2023-04-15T01:00:35.869Z,11.16
2023-04-15T01:03:03.209Z,11.15
2023-04-15T01:05:31.131Z,11.09
2023-04-15T01:07:57.995Z,11.10
2023-04-15T01:10:24.383Z,11.12
2023-04-15T01:12:51.273Z,11.13
2023-04-15T01:15:17.859Z,11.16
2023-04-15T01:17:44.668Z,11.08
2023-04-15T01:20:12.054Z,11.08
2023-04-15T01:22:39.432Z,11.09
2023-04-15T01:25:15.790Z,11.06
2023-04-15T01:27:42.532Z,11.03
2023-04-15T01:30:10.520Z,10.95
2023-04-15T01:32:38.065Z,10.89
2023-04-15T01:35:04.909Z,10.86
2023-04-15T01:37:32.278Z,10.93
2023-04-15T01:39:58.650Z,10.94
2023-04-15T01:42:25.181Z,10.91
2023-04-15T01:44:52.053Z,10.82
2023-04-15T01:47:18.526Z,10.76
2023-04-15T01:49:44.938Z,10.69
2023-04-15T01:52:11.373Z,10.70
2023-04-15T01:54:40.045Z,10.72
2023-04-15T01:57:06.524Z,10.65
2023-04-15T01:59:33.075Z,10.63
2023-04-15T02:02:00.382Z,10.60
2023-04-15T02:04:27.925Z,10.58
2023-04-15T02:06:54.415Z,10.53
2023-04-15T02:09:21.525Z,10.45
2023-04-15T02:11:48.096Z,10.44
2023-04-15T02:14:14.507Z,10.39
2023-04-15T02:16:41.235Z,10.32
2023-04-15T02:19:08.075Z,10.21
2023-04-15T02:21:37.293Z,10.14
2023-04-15T02:24:04.203Z,10.10
2023-04-15T02:26:32.592Z,10.09
2023-04-15T02:28:59.797Z,10.08
2023-04-15T02:31:26.642Z,10.10
2023-04-15T02:33:53.060Z,10.11
2023-04-15T02:36:21.021Z,10.09
2023-04-15T02:38:47.456Z,10.10
2023-04-15T02:41:15.528Z,10.12
2023-04-15T02:43:44.002Z,10.16
2023-04-15T02:46:14.655Z,10.14
2023-04-15T02:48:41.686Z,10.08
2023-04-15T02:51:16.867Z,10.06
2023-04-15T02:53:43.358Z,10.01
2023-04-15T02:56:09.995Z,10.04
2023-04-15T02:58:36.561Z,10.06
2023-04-15T03:01:03.200Z,10.07
2023-04-15T03:03:29.809Z,10.09
2023-04-15T03:05:56.481Z,10.08
2023-04-15T03:08:23.831Z,10.05
2023-04-15T03:10:52.304Z,9.99
2023-04-15T03:13:19.372Z,9.97
2023-04-15T03:15:49.221Z,10.02
2023-04-15T03:18:15.710Z,10.06
2023-04-15T03:20:42.525Z,10.13
2023-04-15T03:23:09.428Z,10.08
2023-04-15T03:25:37.355Z,10.03
2023-04-15T03:28:06.009Z,9.94
2023-04-15T03:30:33.125Z,9.94
2023-04-15T03:32:59.782Z,9.90
2023-04-15T03:35:26.263Z,9.94
2023-04-15T03:37:52.652Z,9.93
2023-04-15T03:40:19.048Z,9.86
2023-04-15T03:42:45.442Z,9.80
2023-04-15T03:45:11.913Z,9.80
2023-04-15T03:47:38.391Z,9.83
2023-04-15T03:50:05.351Z,9.87
2023-04-15T03:52:31.746Z,9.87
2023-04-15T03:54:58.262Z,9.86
2023-04-15T03:57:24.626Z,9.84
2023-04-15T03:59:51.186Z,9.79
2023-04-15T04:02:17.883Z,9.80
2023-04-15T04:04:44.444Z,9.82
2023-04-15T04:07:20.256Z,9.78
2023-04-15T04:09:47.434Z,9.74
2023-04-15T04:12:14.095Z,9.70
2023-04-15T04:14:40.753Z,9.66
2023-04-15T04:17:07.277Z,9.55
2023-04-15T04:19:34.243Z,9.51
2023-04-15T04:22:00.972Z,9.40
2023-04-15T04:24:27.334Z,9.38
2023-04-15T04:26:53.798Z,9.36
2023-04-15T04:29:20.178Z,9.41
2023-04-15T04:31:48.575Z,9.38
2023-04-15T04:34:15.925Z,9.33
2023-04-15T04:36:42.394Z,9.29
2023-04-15T04:39:08.925Z,9.26
2023-04-15T04:41:35.332Z,9.20
2023-04-15T04:44:01.819Z,9.15
2023-04-15T04:46:28.504Z,9.02
2023-04-15T04:49:20.565Z,8.99
2023-04-15T04:51:48.462Z,8.99
2023-04-15T04:54:14.890Z,9.02
2023-04-15T04:56:41.475Z,9.01
2023-04-15T04:59:07.975Z,9.02
2023-04-15T05:01:34.428Z,8.99
2023-04-15T05:04:01.345Z,8.95
2023-04-15T05:06:30.439Z,8.89
2023-04-15T05:08:56.892Z,8.88
2023-04-15T05:11:23.367Z,8.84
2023-04-15T05:13:49.801Z,8.74
2023-04-15T05:16:16.716Z,8.68
2023-04-15T05:18:43.155Z,8.63
2023-04-15T05:21:09.570Z,8.61
2023-04-15T05:23:36.070Z,8.57
2023-04-15T05:26:02.468Z,8.53
2023-04-15T05:28:28.835Z,8.55
2023-04-15T05:30:55.490Z,8.60
2023-04-15T05:33:21.894Z,8.63
2023-04-15T05:35:48.293Z,8.62
2023-04-15T05:38:14.846Z,8.55
2023-04-15T05:40:41.323Z,8.55
2023-04-15T05:43:07.780Z,8.65
2023-04-15T05:45:34.192Z,8.66
2023-04-15T05:48:00.657Z,8.72
2023-04-15T05:50:27.116Z,8.77
2023-04-15T05:52:53.549Z,8.86
2023-04-15T05:55:20.423Z,8.91
2023-04-15T05:57:47.017Z,8.88
2023-04-15T06:00:14.412Z,8.87
2023-04-15T06:02:41.668Z,8.90
2023-04-15T06:05:11.841Z,9.03
2023-04-15T06:07:39.036Z,9.09
2023-04-15T06:10:06.168Z,9.25
2023-04-15T06:12:32.867Z,9.31
2023-04-15T06:15:00.275Z,9.34
2023-04-15T06:17:26.938Z,9.38
2023-04-15T06:19:56.460Z,9.37
2023-04-15T06:22:23.891Z,9.36
2023-04-15T06:24:51.503Z,9.47
2023-04-15T06:27:18.045Z,9.60
2023-04-15T06:29:44.756Z,9.60
2023-04-15T06:32:11.858Z,9.60
2023-04-15T06:34:38.319Z,9.68
2023-04-15T06:37:06.311Z,9.73
2023-04-15T06:39:33.037Z,9.75
2023-04-15T06:41:59.478Z,9.74
2023-04-15T06:44:26.132Z,9.75
2023-04-15T06:46:52.699Z,9.74
2023-04-15T06:49:19.100Z,9.75
2023-04-15T06:51:45.632Z,9.85
2023-04-15T06:54:12.062Z,10.00
2023-04-15T06:56:38.542Z,10.12
2023-04-15T06:59:04.905Z,10.13
2023-04-15T07:01:31.399Z,10.23
2023-04-15T07:03:57.938Z,10.36
2023-04-15T07:06:24.691Z,10.49
2023-04-15T07:08:51.188Z,10.51
2023-04-15T07:11:17.578Z,10.54
2023-04-15T07:13:44.008Z,10.53
2023-04-15T07:16:10.503Z,10.64
2023-04-15T07:18:37.237Z,10.78
2023-04-15T07:21:03.842Z,10.82
2023-04-15T07:23:30.264Z,10.73
2023-04-15T07:25:57.351Z,10.61
2023-04-15T07:28:23.769Z,10.65
2023-04-15T07:30:50.337Z,10.72
2023-04-15T07:33:16.818Z,10.72
2023-04-15T07:35:43.466Z,10.69
2023-04-15T07:38:09.859Z,10.63
2023-04-15T07:40:36.302Z,10.73
2023-04-15T07:43:03.393Z,10.77
2023-04-15T07:45:29.979Z,10.91
2023-04-15T07:47:56.714Z,11.00
2023-04-15T07:50:24.059Z,10.97
2023-04-15T07:52:51.442Z,10.93
2023-04-15T07:55:20.029Z,10.89
2023-04-15T07:57:47.427Z,10.97
2023-04-15T08:00:14.868Z,11.07
2023-04-15T08:02:42.712Z,11.14
2023-04-15T08:05:10.661Z,11.22
2023-04-15T08:07:38.313Z,11.28
2023-04-15T08:10:05.220Z,11.28
2023-04-15T08:12:32.003Z,11.21
2023-04-15T08:14:58.739Z,11.03
2023-04-15T08:17:25.462Z,10.94
2023-04-15T08:19:52.138Z,11.09
2023-04-15T08:22:19.631Z,11.20
2023-04-15T08:24:47.222Z,11.21
2023-04-15T08:27:13.822Z,11.24
2023-04-15T08:29:40.696Z,11.35
2023-04-15T08:32:07.575Z,11.30
2023-04-15T08:34:34.765Z,11.38
2023-04-15T08:37:01.203Z,11.45
2023-04-15T08:39:28.247Z,11.48
2023-04-15T08:42:02.561Z,11.50
2023-04-15T08:44:31.480Z,11.60
2023-04-15T08:47:02.861Z,11.52
2023-04-15T08:49:30.485Z,11.55
2023-04-15T08:51:59.288Z,11.65
2023-04-15T08:54:27.130Z,11.68
2023-04-15T08:56:53.880Z,11.73
2023-04-15T08:59:22.153Z,11.93
2023-04-15T09:01:51.069Z,12.13
2023-04-15T09:04:18.226Z,12.12
2023-04-15T09:06:44.892Z,12.05
2023-04-15T09:09:14.288Z,12.00
2023-04-15T09:11:41.312Z,12.01
2023-04-15T09:14:08.176Z,12.07
2023-04-15T09:17:00.710Z,12.17
2023-04-15T09:19:27.844Z,12.40
2023-04-15T09:21:58.959Z,12.52
2023-04-15T09:24:34.205Z,12.68
2023-04-15T09:27:01.086Z,12.83
2023-04-15T09:29:27.864Z,12.98
2023-04-15T09:31:54.252Z,13.12
2023-04-15T09:34:21.406Z,13.19
2023-04-15T09:36:49.768Z,13.38
2023-04-15T09:39:17.360Z,13.52
2023-04-15T09:41:44.520Z,13.32
2023-04-15T09:44:27.017Z,13.16
2023-04-15T09:46:53.582Z,13.18
2023-04-15T09:49:20.798Z,13.18
2023-04-15T09:51:57.907Z,13.08
2023-04-15T09:54:38.659Z,13.18
2023-04-15T09:57:10.049Z,13.13
2023-04-15T09:59:36.732Z,13.13
2023-04-15T10:02:06.549Z,13.21
2023-04-15T10:04:39.735Z,13.38
2023-04-15T10:07:07.304Z,13.49
2023-04-15T10:09:36.319Z,13.40
2023-04-15T10:12:05.864Z,13.33
2023-04-15T10:14:38.660Z,13.33
2023-04-15T10:17:06.025Z,13.29
2023-04-15T10:19:36.416Z,13.22
2023-04-15T10:22:03.797Z,13.29
2023-04-15T10:24:32.847Z,13.43
2023-04-15T10:27:00.535Z,13.64
2023-04-15T10:29:27.668Z,13.75
2023-04-15T10:31:58.911Z,13.70
2023-04-15T10:34:26.845Z,13.62
2023-04-15T10:36:58.258Z,13.47
2023-04-15T10:39:51.154Z,13.33
2023-04-15T10:42:19.563Z,13.27
2023-04-15T10:44:54.180Z,13.27
2023-04-15T10:47:22.028Z,13.25
2023-04-15T10:49:51.026Z,13.18
2023-04-15T10:52:22.772Z,13.22
2023-04-15T10:54:49.186Z,13.30
2023-04-15T10:57:22.680Z,13.35
2023-04-15T11:00:01.873Z,13.45
2023-04-15T11:02:43.664Z,13.46
2023-04-15T11:05:14.638Z,13.41
2023-04-15T11:07:46.914Z,13.29
2023-04-15T11:10:13.367Z,13.24
2023-04-15T11:12:41.806Z,13.21
2023-04-15T11:15:29.514Z,13.12
2023-04-15T11:18:08.750Z,13.11
2023-04-15T11:20:35.944Z,13.15
2023-04-15T11:23:08.379Z,13.32
2023-04-15T11:25:43.018Z,13.45
2023-04-15T11:28:10.908Z,13.40
2023-04-15T11:30:38.474Z,13.36
2023-04-15T11:33:06.942Z,13.52
2023-04-15T11:35:33.471Z,13.56
2023-04-15T11:38:06.069Z,13.61
2023-04-15T11:40:33.460Z,13.83
2023-04-15T11:43:11.414Z,14.00
2023-04-15T11:45:48.159Z,14.16
2023-04-15T11:48:14.918Z,14.16
2023-04-15T11:50:41.573Z,14.09
2023-04-15T11:53:10.434Z,14.01
2023-04-15T11:55:43.449Z,13.89
2023-04-15T11:58:23.250Z,13.86
2023-04-15T12:01:00.573Z,14.00
2023-04-15T12:03:33.040Z,14.20
2023-04-15T12:06:22.022Z,14.20
2023-04-15T12:09:06.818Z,14.10
2023-04-15T12:11:40.550Z,14.22
2023-04-15T12:14:08.360Z,14.37
2023-04-15T12:16:48.180Z,14.22
2023-04-15T12:19:18.563Z,14.01
2023-04-15T12:21:48.059Z,13.85
2023-04-15T12:24:14.646Z,13.81
2023-04-15T12:27:05.535Z,13.89
2023-04-15T12:29:33.294Z,13.91
2023-04-15T12:32:09.335Z,14.06
2023-04-15T12:34:38.652Z,14.16
2023-04-15T12:37:07.887Z,14.07
2023-04-15T12:39:39.658Z,14.12
2023-04-15T12:42:08.264Z,14.25
2023-04-15T12:44:36.256Z,14.49
2023-04-15T12:47:03.127Z,14.60
2023-04-15T12:49:30.661Z,14.63
2023-04-15T12:51:59.992Z,14.71
2023-04-15T12:54:27.111Z,14.61
2023-04-15T12:56:54.588Z,14.35
2023-04-15T12:59:21.783Z,14.21
2023-04-15T13:01:48.831Z,14.13
2023-04-15T13:04:17.024Z,14.10
2023-04-15T13:06:43.855Z,14.07
2023-04-15T13:09:10.700Z,14.00
2023-04-15T13:11:37.420Z,14.07
2023-04-15T13:14:07.136Z,14.07
2023-04-15T13:16:34.528Z,13.95
2023-04-15T13:19:01.881Z,13.67
2023-04-15T13:21:28.593Z,13.52
2023-04-15T13:23:55.619Z,13.49
2023-04-15T13:26:22.112Z,13.59
2023-04-15T13:28:48.525Z,13.83
2023-04-15T13:31:15.045Z,13.97
2023-04-15T13:33:41.574Z,13.82
2023-04-15T13:36:08.402Z,13.67
2023-04-15T13:38:34.892Z,13.57
2023-04-15T13:41:01.469Z,13.49
2023-04-15T13:43:28.250Z,13.52
2023-04-15T13:45:55.267Z,13.42
2023-04-15T13:48:21.737Z,13.41
2023-04-15T13:50:48.114Z,13.40
2023-04-15T13:53:14.550Z,13.33
2023-04-15T13:55:42.666Z,13.27
2023-04-15T13:58:10.014Z,13.30
2023-04-15T14:00:36.636Z,13.31
2023-04-15T14:03:03.367Z,13.25
2023-04-15T14:05:29.968Z,13.19
2023-04-15T14:07:56.405Z,13.05
2023-04-15T14:10:22.862Z,13.14
2023-04-15T14:12:49.288Z,13.08
2023-04-15T14:15:15.924Z,13.07
2023-04-15T14:17:42.689Z,13.19
2023-04-15T14:20:09.822Z,13.25
2023-04-15T14:22:36.343Z,13.26
2023-04-15T14:25:02.817Z,13.27
2023-04-15T14:27:29.386Z,13.24
2023-04-15T14:29:57.630Z,13.15
2023-04-15T14:32:26.159Z,13.26
2023-04-15T14:34:52.690Z,13.20
2023-04-15T14:37:19.221Z,13.05
2023-04-15T14:39:45.608Z,12.83
2023-04-15T14:42:11.982Z,12.80
2023-04-15T14:44:38.360Z,12.92
2023-04-15T14:47:05.913Z,12.92
2023-04-15T14:49:32.402Z,12.95
2023-04-15T14:51:58.864Z,12.88
2023-04-15T14:54:25.342Z,12.87
2023-04-15T14:56:51.717Z,12.89
2023-04-15T14:59:18.152Z,12.97
2023-04-15T15:01:44.822Z,13.02
2023-04-15T15:04:11.683Z,12.90
2023-04-15T15:06:38.680Z,13.03
2023-04-15T15:09:05.323Z,12.94
2023-04-15T15:11:31.967Z,12.75
2023-04-15T15:13:58.403Z,12.64
2023-04-15T15:16:25.129Z,12.50
2023-04-15T15:18:51.607Z,12.42
2023-04-15T15:21:18.464Z,12.49
2023-04-15T15:23:45.917Z,12.56
2023-04-15T15:26:12.573Z,12.48
2023-04-15T15:28:39.011Z,12.44
2023-04-15T15:31:05.879Z,12.54
2023-04-15T15:33:32.769Z,12.50
2023-04-15T15:35:59.196Z,12.43
2023-04-15T15:38:26.194Z,12.32
2023-04-15T15:40:52.727Z,12.29
2023-04-15T15:43:19.167Z,12.29
2023-04-15T15:45:45.704Z,12.18
2023-04-15T15:48:12.264Z,12.24
2023-04-15T15:50:38.856Z,12.31
2023-04-15T15:53:05.363Z,12.33
2023-04-15T15:55:31.852Z,12.30
2023-04-15T15:57:58.254Z,12.36
2023-04-15T16:00:24.734Z,12.29
2023-04-15T16:03:05.273Z,12.17
2023-04-15T16:05:33.558Z,12.11
2023-04-15T16:08:00.051Z,12.06
2023-04-15T16:10:26.533Z,12.04
2023-04-15T16:12:52.964Z,12.09
2023-04-15T16:15:19.592Z,12.08
2023-04-15T16:17:46.035Z,12.18
2023-04-15T16:20:13.675Z,12.15
2023-04-15T16:22:40.213Z,12.30
2023-04-15T16:25:07.150Z,12.22
2023-04-15T16:27:34.962Z,12.26
2023-04-15T16:30:01.868Z,12.20
2023-04-15T16:32:28.282Z,12.10
2023-04-15T16:34:55.417Z,12.10
2023-04-15T16:37:21.909Z,12.04
2023-04-15T16:39:48.328Z,12.03
2023-04-15T16:42:14.751Z,11.92
2023-04-15T16:44:41.154Z,11.83
2023-04-15T16:47:09.706Z,11.79
2023-04-15T16:49:36.112Z,11.70
2023-04-15T16:52:02.586Z,11.72
2023-04-15T16:54:29.741Z,11.77
2023-04-15T16:56:58.453Z,11.77
2023-04-15T16:59:25.754Z,11.83
2023-04-15T17:01:52.335Z,11.79
2023-04-15T17:04:19.052Z,11.65
2023-04-15T17:06:45.979Z,11.56
2023-04-15T17:09:12.376Z,11.48
2023-04-15T17:11:40.503Z,11.49
2023-04-15T17:14:07.636Z,11.45
2023-04-15T17:16:34.013Z,11.39
2023-04-15T17:19:00.477Z,11.31
2023-04-15T17:21:27.362Z,11.27
2023-04-15T17:23:53.864Z,11.22
2023-04-15T17:26:20.256Z,11.22
2023-04-15T17:28:46.690Z,11.36
2023-04-15T17:31:13.290Z,11.39
2023-04-15T17:34:00.244Z,11.28
2023-04-15T17:36:27.254Z,11.23
2023-04-15T17:38:56.561Z,11.15
2023-04-15T17:41:23.763Z,11.06
2023-04-15T17:43:50.525Z,11.02
2023-04-15T17:46:17.083Z,11.06
2023-04-15T17:48:43.573Z,11.09
2023-04-15T17:51:10.164Z,11.11
2023-04-15T17:53:36.565Z,10.99
2023-04-15T17:56:03.007Z,10.96
2023-04-15T17:58:30.012Z,10.99
2023-04-15T18:00:56.616Z,10.94
2023-04-15T18:03:23.288Z,10.91
2023-04-15T18:05:49.818Z,10.93
2023-04-15T18:08:16.297Z,11.04
2023-04-15T18:10:42.736Z,11.15
2023-04-15T18:13:09.160Z,11.18
2023-04-15T18:15:35.874Z,11.14
2023-04-15T18:18:02.652Z,10.92
2023-04-15T18:20:29.252Z,10.93
2023-04-15T18:22:55.793Z,10.99
2023-04-15T18:25:22.223Z,10.92
2023-04-15T18:27:48.977Z,10.93
2023-04-15T18:30:15.424Z,10.97
2023-04-15T18:32:41.992Z,10.87
2023-04-15T18:35:08.903Z,10.78
2023-04-15T18:37:35.696Z,10.62
2023-04-15T18:40:02.204Z,10.52
2023-04-15T18:42:28.751Z,10.46
2023-04-15T18:44:55.271Z,10.49
2023-04-15T18:47:21.966Z,10.50
2023-04-15T18:49:48.387Z,10.42
2023-04-15T18:52:14.864Z,10.45
2023-04-15T18:54:41.260Z,10.52
2023-04-15T18:57:07.767Z,10.50
2023-04-15T18:59:34.682Z,10.40
2023-04-15T19:02:02.130Z,10.39
2023-04-15T19:04:29.397Z,10.37
2023-04-15T19:06:56.039Z,10.24
2023-04-15T19:09:22.579Z,10.17
2023-04-15T19:11:48.969Z,10.18
2023-04-15T19:14:15.399Z,10.22
2023-04-15T19:16:41.868Z,10.26
2023-04-15T19:19:08.337Z,10.30
2023-04-15T19:21:34.846Z,10.44
2023-04-15T19:24:01.455Z,10.35
2023-04-15T19:26:28.021Z,10.43
2023-04-15T19:28:54.836Z,10.46
2023-04-15T19:31:21.326Z,10.56
2023-04-15T19:33:47.755Z,10.59
2023-04-15T19:36:14.391Z,10.48
2023-04-15T19:38:40.931Z,10.40
2023-04-15T19:41:09.638Z,10.34
2023-04-15T19:43:36.533Z,10.24
2023-04-15T19:46:04.121Z,10.36
2023-04-15T19:48:30.609Z,10.36
2023-04-15T19:50:57.333Z,10.30
2023-04-15T19:53:25.576Z,10.31
2023-04-15T19:55:52.141Z,10.32
2023-04-15T19:58:18.617Z,10.27
2023-04-15T20:00:44.999Z,10.28
2023-04-15T20:03:11.718Z,10.36
2023-04-15T20:05:38.279Z,10.29
2023-04-15T20:08:04.905Z,10.28
2023-04-15T20:10:31.999Z,10.34
2023-04-15T20:12:58.551Z,10.26
2023-04-15T20:15:25.018Z,10.27
2023-04-15T20:17:51.626Z,10.26
2023-04-15T20:20:18.562Z,10.26
2023-04-15T20:22:45.307Z,10.29
2023-04-15T20:25:11.843Z,10.21
2023-04-15T20:27:38.364Z,10.08
2023-04-15T20:30:05.911Z,10.14
2023-04-15T20:32:35.250Z,10.15
2023-04-15T20:35:03.315Z,10.21
2023-04-15T20:37:30.809Z,10.12
2023-04-15T20:39:57.463Z,10.14
2023-04-15T20:42:23.950Z,10.19
2023-04-15T20:44:50.412Z,10.14
2023-04-15T20:47:17.057Z,10.13
2023-04-15T20:49:43.736Z,10.13
2023-04-15T20:52:10.642Z,10.10
2023-04-15T20:54:37.050Z,9.97
2023-04-15T20:57:03.618Z,9.99
2023-04-15T20:59:30.423Z,10.03
2023-04-15T21:01:57.490Z,10.09
2023-04-15T21:04:24.443Z,10.13
2023-04-15T21:06:52.033Z,10.06
2023-04-15T21:09:18.876Z,10.05
2023-04-15T21:12:00.464Z,10.11
2023-04-15T21:14:28.292Z,10.10
2023-04-15T21:16:54.800Z,10.02
2023-04-15T21:19:21.306Z,10.00
2023-04-15T21:21:47.678Z,10.01
2023-04-15T21:24:14.109Z,10.02
2023-04-15T21:26:40.656Z,9.99
2023-04-15T21:29:09.473Z,10.02
2023-04-15T21:31:37.809Z,10.07
2023-04-15T21:34:04.236Z,10.02
2023-04-15T21:36:31.581Z,10.01
2023-04-15T21:38:58.007Z,10.00
2023-04-15T21:41:24.463Z,10.03
2023-04-15T21:43:50.992Z,10.01
2023-04-15T21:46:22.892Z,9.96
2023-04-15T21:48:52.410Z,10.06
2023-04-15T21:51:18.829Z,10.11
2023-04-15T21:53:45.273Z,10.06
2023-04-15T21:56:11.984Z,10.06
2023-04-15T21:58:38.468Z,10.02
2023-04-15T22:01:05.121Z,10.04
2023-04-15T22:03:33.901Z,10.05
2023-04-15T22:06:02.201Z,10.02
2023-04-15T22:08:28.831Z,10.09
2023-04-15T22:10:55.443Z,10.02
2023-04-15T22:13:21.910Z,9.93
2023-04-15T22:15:48.356Z,10.00
2023-04-15T22:18:14.836Z,9.95
2023-04-15T22:20:41.377Z,10.02
2023-04-15T22:23:08.924Z,10.05
2023-04-15T22:25:38.384Z,10.08
2023-04-15T22:28:08.153Z,10.07
2023-04-15T22:30:42.067Z,10.01
2023-04-15T22:33:09.643Z,9.90
2023-04-15T22:35:37.140Z,9.85
2023-04-15T22:38:04.665Z,9.85
2023-04-15T22:40:31.151Z,9.81
2023-04-15T22:42:57.585Z,9.84
2023-04-15T22:45:24.056Z,9.80
2023-04-15T22:47:50.587Z,9.76
2023-04-15T22:50:17.062Z,9.75
2023-04-15T22:52:46.088Z,9.79
2023-04-15T22:55:12.855Z,9.79
2023-04-15T22:57:39.318Z,9.78
2023-04-15T23:00:07.211Z,9.72
2023-04-15T23:02:34.761Z,9.70
2023-04-15T23:05:03.484Z,9.71
2023-04-15T23:07:38.498Z,9.78
2023-04-15T23:10:05.399Z,9.77
2023-04-15T23:12:31.792Z,9.68
2023-04-15T23:14:58.181Z,9.66
2023-04-15T23:17:24.636Z,9.60
2023-04-15T23:19:51.461Z,9.45
2023-04-15T23:22:18.371Z,9.43
2023-04-15T23:24:44.744Z,9.45
2023-04-15T23:27:11.223Z,9.40
2023-04-15T23:29:37.721Z,9.46
2023-04-15T23:32:04.323Z,9.49
2023-04-15T23:34:30.813Z,9.50
2023-04-15T23:36:57.188Z,9.43
2023-04-15T23:39:23.624Z,9.45
2023-04-15T23:41:50.497Z,9.49
2023-04-15T23:44:16.966Z,9.58
2023-04-15T23:46:43.420Z,9.65
2023-04-15T23:49:10.068Z,9.55
2023-04-15T23:51:36.674Z,9.52
2023-04-15T23:54:03.155Z,9.55
2023-04-15T23:56:29.520Z,9.61
2023-04-15T23:58:55.911Z,9.62
